Time;durP1;ratioP1;P1;durP2;ratioP2;P2;SDS_P1;SDS_P2;PMS_P1;PMS_P2;Temp;Humidity;BMP_temperature;BMP_pressure;BME280_temperature;BME280_humidity;BME280_pressure;Samples;Min_cycle;Max_cycle;Signal;HPM_P1;HPM_P2
2023/06/06 00:02:07;;;;;;;;;;;;;;;21.55;55.90;101292.84;7400316;19;1767;-45
2023/06/06 00:04:35;;;;;;;;;;;;;;;21.56;55.74;101282.94;7397387;19;1664;-45
2023/06/06 00:07:04;;;;;;;;;;;;;;;21.54;55.91;101284.91;7401802;19;1042;-45
2023/06/06 00:09:33;;;;;;;;;;;;;;;21.60;55.52;101300.50;7398826;19;1932;-45
2023/06/06 00:12:04;;;;;;;;;;;;;;;21.51;55.84;101274.44;7399995;19;1814;-45
2023/06/06 00:14:33;;;;;;;;;;;;;;;21.53;55.90;101299.38;7398262;19;1862;-45
2023/06/06 00:17:01;;;;;;;;;;;;;;;21.62;55.38;101293.13;7399115;19;1740;-46
2023/06/06 00:19:32;;;;;;;;;;;;;;;21.53;55.62;101288.63;7400674;19;1726;-46
2023/06/06 00:22:01;;;;;;;;;;;;;;;21.53;55.70;101277.84;7400571;19;1798;-46
2023/06/06 00:24:29;;;;;;;;;;;;;;;21.49;55.48;101287.16;7397771;19;1797;-45
2023/06/06 00:26:58;;;;;;;;;;;;;;;21.48;55.58;101280.94;7400209;19;1392;-46
2023/06/06 00:29:26;;;;;;;;;;;;;;;21.54;55.76;101284.91;7400980;19;1024;-45
2023/06/06 00:31:54;;;;;;;;;;;;;;;21.54;55.51;101284.91;7400365;19;1124;-45
2023/06/06 00:34:23;;;;;;;;;;;;;;;21.49;55.54;101271.88;7398982;19;1857;-46
2023/06/06 00:36:53;;;;;;;;;;;;;;;21.43;55.86;101270.59;7399757;19;1123;-45
2023/06/06 00:39:22;;;;;;;;;;;;;;;21.43;55.49;101278.69;7398681;19;1107;-45
2023/06/06 00:41:50;;;;;;;;;;;;;;;21.41;55.58;101275.25;7399285;19;1931;-45
2023/06/06 00:44:19;;;;;;;;;;;;;;;21.41;55.38;101275.25;7399302;19;1557;-46
2023/06/06 00:46:47;;;;;;;;;;;;;;;21.43;55.37;101278.69;7400111;19;1578;-45
2023/06/06 00:49:16;;;;;;;;;;;;;;;21.45;55.49;101286.63;7399129;19;1391;-46
2023/06/06 00:51:45;;;;;;;;;;;;;;;21.44;55.45;101274.13;7398737;19;1787;-46
2023/06/06 00:54:16;;;;;;;;;;;;;;;21.43;55.63;101277.84;7398614;19;1853;-46
2023/06/06 00:56:45;;;;;;;;;;;;;;;21.51;55.24;101283.38;7398009;19;1471;-46
2023/06/06 00:59:14;;;;;;;;;;;;;;;21.49;55.28;101287.16;7398151;19;1719;-45
2023/06/06 01:01:42;;;;;;;;;;;;;;;21.47;55.14;101290.00;7399336;19;1391;-46
2023/06/06 01:04:12;;;;;;;;;;;;;;;21.50;55.37;101283.50;7400356;19;1034;-45
2023/06/06 01:06:40;;;;;;;;;;;;;;;21.42;55.31;101287.69;7400955;19;965;-46
2023/06/06 01:09:11;;;;;;;;;;;;;;;21.43;55.42;101280.53;7395337;19;1818;-45
2023/06/06 01:11:52;;;;;;;;;;;;;;;21.44;55.47;101279.53;7397737;19;1746;-45
2023/06/06 01:14:24;;;;;;;;;;;;;;;21.41;55.30;101296.75;7396760;19;1848;-45
2023/06/06 01:16:53;;;;;;;;;;;;;;;21.42;55.42;101274.25;7394976;19;1284;-46
2023/06/06 01:19:27;;;;;;;;;;;;;;;21.39;55.34;101279.06;7397021;19;1554;-45
2023/06/06 01:21:59;;;;;;;;;;;;;;;21.39;55.50;101276.38;7397439;19;1445;-45
2023/06/06 01:24:28;;;;;;;;;;;;;;;21.42;55.47;101270.69;7396102;19;1195;-45
2023/06/06 01:26:57;;;;;;;;;;;;;;;21.47;55.30;101267.63;7396759;19;1177;-46
2023/06/06 01:29:25;;;;;;;;;;;;;;;21.40;55.24;101261.91;7398389;19;1317;-45
2023/06/06 01:31:58;;;;;;;;;;;;;;;21.42;55.25;101258.09;7397649;19;1608;-45
2023/06/06 01:34:32;;;;;;;;;;;;;;;21.39;55.51;101249.47;7396856;19;1863;-45
2023/06/06 01:37:09;;;;;;;;;;;;;;;21.35;55.38;101248.91;7396658;19;1730;-45
2023/06/06 01:39:41;;;;;;;;;;;;;;;21.42;55.29;101252.72;7397562;19;1754;-46
2023/06/06 01:42:10;;;;;;;;;;;;;;;21.43;55.36;101257.16;7399299;19;1201;-45
2023/06/06 01:44:40;;;;;;;;;;;;;;;21.41;55.62;101251.03;7398335;19;1447;-45
2023/06/06 01:47:09;;;;;;;;;;;;;;;21.43;55.48;101256.31;7397858;19;1853;-46
2023/06/06 01:49:39;;;;;;;;;;;;;;;21.42;55.21;101254.56;7397480;19;1952;-45
2023/06/06 01:52:10;;;;;;;;;;;;;;;21.34;55.73;101260.63;7397138;19;1681;-46
2023/06/06 01:54:40;;;;;;;;;;;;;;;21.38;55.65;101270.13;7396864;19;1838;-46
2023/06/06 01:57:09;;;;;;;;;;;;;;;21.34;55.34;101274.09;7397216;19;1372;-45
2023/06/06 01:59:38;;;;;;;;;;;;;;;21.34;55.46;101257.94;7395744;19;1399;-45
2023/06/06 02:02:07;;;;;;;;;;;;;;;21.39;55.58;101261.06;7395731;19;1321;-46
2023/06/06 02:04:35;;;;;;;;;;;;;;;21.34;55.29;101257.94;7395341;19;1801;-45
2023/06/06 02:07:04;;;;;;;;;;;;;;;21.38;55.48;101266.59;7397277;19;1257;-45
2023/06/06 02:09:35;;;;;;;;;;;;;;;21.32;55.54;101262.63;7395277;19;1220;-45
2023/06/06 02:12:03;;;;;;;;;;;;;;;21.34;55.14;101274.09;7395866;19;1479;-45
2023/06/06 02:14:31;;;;;;;;;;;;;;;21.31;55.70;101266.31;7395911;19;1851;-46
2023/06/06 02:17:00;;;;;;;;;;;;;;;21.31;55.41;101273.50;7394805;19;1580;-45
2023/06/06 02:19:29;;;;;;;;;;;;;;;21.29;55.55;101287.13;7395628;19;1246;-45
2023/06/06 02:21:57;;;;;;;;;;;;;;;21.31;55.58;101282.44;7395062;19;1143;-45
2023/06/06 02:24:27;;;;;;;;;;;;;;;21.28;55.35;101280.03;7394820;19;1709;-45
2023/06/06 02:26:58;;;;;;;;;;;;;;;21.31;55.33;101278.88;7395999;19;1539;-45
2023/06/06 02:29:26;;;;;;;;;;;;;;;21.36;55.40;101293.63;7403160;19;1044;-46
2023/06/06 02:31:56;;;;;;;;;;;;;;;21.32;55.44;101288.66;7404072;19;1544;-45
2023/06/06 02:34:25;;;;;;;;;;;;;;;21.28;55.74;101296.16;7402648;19;1846;-45
2023/06/06 02:36:53;;;;;;;;;;;;;;;21.33;55.30;101293.03;7404443;19;1182;-45
2023/06/06 02:39:21;;;;;;;;;;;;;;;21.35;55.30;101297.31;7403114;19;1040;-45
2023/06/06 02:41:50;;;;;;;;;;;;;;;21.31;55.54;101286.94;7402899;19;1481;-45
2023/06/06 02:44:22;;;;;;;;;;;;;;;21.38;55.46;101288.13;7403369;19;1226;-45
2023/06/06 02:46:50;;;;;;;;;;;;;;;21.34;55.48;101290.22;7403081;19;1956;-45
2023/06/06 02:49:18;;;;;;;;;;;;;;;21.27;55.70;101286.41;7403134;19;1478;-45
2023/06/06 02:51:46;;;;;;;;;;;;;;;21.25;55.68;101291.06;7403195;19;1786;-45
2023/06/06 02:54:15;;;;;;;;;;;;;;;21.23;55.80;101293.06;7402652;19;1730;-47
2023/06/06 02:56:43;;;;;;;;;;;;;;;21.23;55.86;101285.81;7399947;19;1847;-45
2023/06/06 02:59:11;;;;;;;;;;;;;;;21.24;55.71;101289.34;7401991;19;1770;-46
2023/06/06 03:01:44;;;;;;;;;;;;;;;21.29;55.61;101291.63;7404303;19;1735;-45
2023/06/06 03:04:13;;;;;;;;;;;;;;;21.27;55.81;101294.47;7404877;19;1016;-45
2023/06/06 03:06:42;;;;;;;;;;;;;;;21.21;55.75;101295.88;7404309;19;1015;-45
2023/06/06 03:09:10;;;;;;;;;;;;;;;21.25;55.64;101305.38;7402562;19;1523;-45
2023/06/06 03:11:39;;;;;;;;;;;;;;;21.22;55.57;101299.41;7402992;19;1944;-45
2023/06/06 03:14:07;;;;;;;;;;;;;;;21.24;55.62;101303.66;7402908;19;1376;-45
2023/06/06 03:16:35;;;;;;;;;;;;;;;21.28;55.56;101296.16;7399790;19;1853;-45
2023/06/06 03:19:06;;;;;;;;;;;;;;;21.31;55.93;101290.53;7401535;19;1514;-45
2023/06/06 03:21:36;;;;;;;;;;;;;;;21.40;55.69;101291.50;7401120;19;1272;-45
2023/06/06 03:24:05;;;;;;;;;;;;;;;21.39;55.75;101300.59;7398661;19;1560;-45
2023/06/06 03:26:33;;;;;;;;;;;;;;;21.42;55.71;101298.44;7401258;19;1490;-46
2023/06/06 03:29:01;;;;;;;;;;;;;;;21.42;55.63;101309.22;7402456;19;1044;-45
2023/06/06 03:31:29;;;;;;;;;;;;;;;21.30;56.02;101288.81;7400621;19;1522;-45
2023/06/06 03:33:58;;;;;;;;;;;;;;;21.33;55.93;101304.69;7401369;19;1194;-45
2023/06/06 03:36:32;;;;;;;;;;;;;;;21.41;55.73;101301.31;7399548;19;1867;-45
2023/06/06 03:39:00;;;;;;;;;;;;;;;21.48;55.56;101289.00;7400182;19;1572;-45
2023/06/06 03:41:28;;;;;;;;;;;;;;;21.48;55.41;101289.00;7401184;19;1178;-45
2023/06/06 03:43:57;;;;;;;;;;;;;;;21.59;54.85;101302.34;7401218;19;1281;-45
2023/06/06 03:46:25;;;;;;;;;;;;;;;21.58;55.20;101289.03;7400076;19;1160;-45
2023/06/06 03:48:53;;;;;;;;;;;;;;;21.61;55.26;101299.53;7401491;19;1675;-45
2023/06/06 03:51:22;;;;;;;;;;;;;;;21.64;55.02;101292.00;7401762;19;1395;-45
2023/06/06 03:53:53;;;;;;;;;;;;;;;21.63;55.34;101300.25;7401352;19;1739;-45
2023/06/06 03:56:23;;;;;;;;;;;;;;;21.85;54.85;101312.59;7400667;19;1838;-46
2023/06/06 03:58:51;;;;;;;;;;;;;;;21.82;54.56;101302.06;7400789;19;1852;-45
2023/06/06 04:01:20;;;;;;;;;;;;;;;21.92;54.78;101300.22;7397996;19;1714;-46
2023/06/06 04:03:48;;;;;;;;;;;;;;;21.93;54.79;101311.88;7402730;19;1010;-45
2023/06/06 04:06:17;;;;;;;;;;;;;;;21.91;54.81;101297.72;7400436;19;1862;-45
2023/06/06 04:08:46;;;;;;;;;;;;;;;21.94;54.59;101309.03;7401122;19;1809;-46
2023/06/06 04:11:17;;;;;;;;;;;;;;;21.93;54.75;101291.19;7399866;19;1369;-45
2023/06/06 04:13:45;;;;;;;;;;;;;;;21.89;54.90;101311.31;7400235;19;1653;-46
2023/06/06 04:16:13;;;;;;;;;;;;;;;21.99;54.89;101317.53;7399387;19;1855;-46
2023/06/06 04:18:41;;;;;;;;;;;;;;;22.05;54.08;101326.91;7399241;19;1419;-45
2023/06/06 04:21:10;;;;;;;;;;;;;;;21.97;54.77;101313.28;7395716;19;1483;-48
2023/06/06 04:23:38;;;;;;;;;;;;;;;22.06;54.57;101312.41;7397291;19;1509;-47
2023/06/06 04:26:10;;;;;;;;;;;;;;;22.05;55.03;101310.72;7398560;19;1236;-48
2023/06/06 04:28:48;;;;;;;;;;;;;;;22.18;54.84;101323.91;7399445;19;1663;-48
2023/06/06 04:31:17;;;;;;;;;;;;;;;22.22;55.34;101318.09;7399509;19;1458;-48
2023/06/06 04:33:52;;;;;;;;;;;;;;;22.15;55.38;101303.50;7399634;19;1539;-48
2023/06/06 04:36:21;;;;;;;;;;;;;;;22.16;55.65;101315.97;7398682;19;1830;-49
2023/06/06 04:38:49;;;;;;;;;;;;;;;22.27;55.50;101325.78;7398793;19;1491;-48
2023/06/06 04:41:20;;;;;;;;;;;;;;;22.19;55.74;101326.47;7399373;19;1656;-48
2023/06/06 04:43:51;;;;;;;;;;;;;;;22.29;55.90;101317.56;7398680;19;1494;-48
2023/06/06 04:46:21;;;;;;;;;;;;;;;22.24;55.93;101321.53;7398649;19;1604;-48
2023/06/06 04:48:52;;;;;;;;;;;;;;;22.31;56.13;101316.41;7398178;19;1551;-48
2023/06/06 04:51:20;;;;;;;;;;;;;;;22.37;56.18;101331.16;7396024;19;1234;-48
2023/06/06 04:53:50;;;;;;;;;;;;;;;22.23;56.95;101330.56;7397813;19;1626;-48
2023/06/06 04:56:18;;;;;;;;;;;;;;;22.12;57.13;101311.84;7396838;19;1850;-48
2023/06/06 04:58:48;;;;;;;;;;;;;;;22.08;57.06;101310.44;7397652;19;1296;-48
2023/06/06 05:01:19;;;;;;;;;;;;;;;22.18;56.59;101311.31;7396416;19;1279;-48
2023/06/06 05:03:47;;;;;;;;;;;;;;;21.94;56.96;101297.41;7397542;19;1206;-45
2023/06/06 05:06:15;;;;;;;;;;;;;;;22.17;56.75;101319.53;7393486;19;1609;-48
2023/06/06 05:08:46;;;;;;;;;;;;;;;22.30;56.31;101316.53;7398517;19;1457;-49
2023/06/06 05:11:15;;;;;;;;;;;;;;;22.49;56.04;101316.53;7397584;19;1855;-48
2023/06/06 05:13:43;;;;;;;;;;;;;;;22.49;56.17;101313.81;7397352;19;1591;-48
2023/06/06 05:16:12;;;;;;;;;;;;;;;22.49;56.04;101305.75;7397584;19;1865;-48
2023/06/06 05:18:43;;;;;;;;;;;;;;;22.50;55.89;101322.75;7396676;19;1487;-48
2023/06/06 05:21:11;;;;;;;;;;;;;;;22.47;55.84;101310.44;7397108;19;1442;-48
2023/06/06 05:23:39;;;;;;;;;;;;;;;22.49;55.51;101330.00;7396093;19;1259;-48
2023/06/06 05:26:08;;;;;;;;;;;;;;;22.42;55.31;101316.25;7392314;19;1178;-48
2023/06/06 05:28:36;;;;;;;;;;;;;;;22.44;55.24;101321.47;7397972;19;1084;-48
2023/06/06 05:31:07;;;;;;;;;;;;;;;22.41;55.56;101311.84;7393339;19;1857;-48
2023/06/06 05:33:35;;;;;;;;;;;;;;;;;;7396853;19;1513;-49
2023/06/06 05:36:06;;;;;;;;;;;;;;;22.48;55.30;101339.06;7394412;19;1875;-49
2023/06/06 05:38:34;;;;;;;;;;;;;;;22.55;55.40;101326.72;7395595;19;1509;-49
2023/06/06 05:41:02;;;;;;;;;;;;;;;22.35;55.37;101330.44;7394189;19;1310;-49
2023/06/06 05:43:33;;;;;;;;;;;;;;;22.22;55.16;101320.78;7397048;19;1206;-48
2023/06/06 05:46:02;;;;;;;;;;;;;;;22.18;54.21;101340.06;7396056;19;1226;-49
2023/06/06 05:48:31;;;;;;;;;;;;;;;22.02;54.28;101338.81;7395284;19;1642;-48
2023/06/06 05:50:59;;;;;;;;;;;;;;;21.91;54.39;101335.41;7397343;19;1551;-48
2023/06/06 05:53:30;;;;;;;;;;;;;;;21.96;53.79;101343.88;7396604;19;1599;-48
2023/06/06 05:55:58;;;;;;;;;;;;;;;21.93;54.59;101344.19;7394286;19;1896;-48
2023/06/06 05:58:27;;;;;;;;;;;;;;;22.13;52.79;101332.41;7396218;19;1597;-48
2023/06/06 06:00:55;;;;;;;;;;;;;;;22.07;52.70;101359.91;7397538;19;1276;-48
2023/06/06 06:03:24;;;;;;;;;;;;;;;22.00;53.03;101335.41;7397179;19;1939;-48
2023/06/06 06:05:52;;;;;;;;;;;;;;;22.06;52.12;101342.03;7394329;19;1360;-49
2023/06/06 06:08:21;;;;;;;;;;;;;;;21.96;52.55;101349.28;7394010;19;1619;-46
2023/06/06 06:10:52;;;;;;;;;;;;;;;21.89;52.58;101340.09;7395492;19;1797;-46
2023/06/06 06:13:20;;;;;;;;;;;;;;;21.94;51.92;101333.25;7391319;19;1392;-46
2023/06/06 06:15:49;;;;;;;;;;;;;;;21.95;52.45;101334.13;7389721;19;1856;-46
2023/06/06 06:18:17;;;;;;;;;;;;;;;21.88;51.79;101320.34;7392517;19;1762;-46
2023/06/06 06:20:46;;;;;;;;;;;;;;;21.97;51.22;101334.84;7391460;19;1739;-46
2023/06/06 06:23:14;;;;;;;;;;;;;;;21.99;50.15;101335.53;7391266;19;1801;-45
2023/06/06 06:25:43;;;;;;;;;;;;;;;21.95;50.51;101326.06;7389518;19;1842;-45
2023/06/06 06:28:23;;;;;;;;;;;;;;;22.00;50.49;101334.53;7392815;19;1046;-45
2023/06/06 06:30:51;;;;;;;;;;;;;;;22.01;50.17;101331.72;7393211;19;951;-46
2023/06/06 06:33:20;;;;;;;;;;;;;;;22.14;48.69;101336.78;7392365;19;1535;-46
2023/06/06 06:35:49;;;;;;;;;;;;;;;22.09;49.11;101347.16;7391728;19;1855;-46
2023/06/06 06:38:17;;;;;;;;;;;;;;;22.03;48.63;101326.19;7389984;19;1849;-45
2023/06/06 06:40:45;;;;;;;;;;;;;;;22.14;48.53;101334.09;7390007;19;1212;-45
2023/06/06 06:43:14;;;;;;;;;;;;;;;22.21;48.78;101337.94;7390501;19;1277;-46
2023/06/06 06:45:45;;;;;;;;;;;;;;;22.09;48.27;101322.91;7392048;19;1714;-45
2023/06/06 06:48:14;;;;;;;;;;;;;;;22.11;48.73;101337.09;7392974;19;1400;-46
2023/06/06 06:50:42;;;;;;;;;;;;;;;22.01;48.84;101322.78;7396486;19;1031;-45
2023/06/06 06:53:12;;;;;;;;;;;;;;;22.05;47.67;101343.06;7396099;19;1960;-45
2023/06/06 06:55:44;;;;;;;;;;;;;;;22.14;47.99;101338.66;7395566;19;1963;-45
2023/06/06 06:58:13;;;;;;;;;;;;;;;22.13;48.07;101329.72;7393297;19;1953;-46
2023/06/06 07:00:41;;;;;;;;;;;;;;;22.16;47.99;101351.00;7395079;19;1873;-45
2023/06/06 07:03:12;;;;;;;;;;;;;;;22.17;48.29;101338.38;7394855;19;1968;-45
2023/06/06 07:05:40;;;;;;;;;;;;;;;22.09;48.41;101349.00;7395468;19;1746;-45
2023/06/06 07:08:08;;;;;;;;;;;;;;;22.20;47.29;101341.66;7395828;19;1078;-63
2023/06/06 07:10:37;;;;;;;;;;;;;;;22.23;47.20;101330.56;7394515;19;1940;-45
2023/06/06 07:13:14;;;;;;;;;;;;;;;22.27;47.32;101339.25;7245077;19;9999666;-45
2023/06/06 07:15:43;;;;;;;;;;;;;;;22.50;47.07;101342.50;7390938;19;1595;-45
2023/06/06 07:18:14;;;;;;;;;;;;;;;22.59;47.39;101335.38;7390860;19;1857;-45
2023/06/06 07:20:43;;;;;;;;;;;;;;;22.72;47.79;101340.44;7393799;19;1861;-46
2023/06/06 07:23:11;;;;;;;;;;;;;;;22.53;48.16;101342.19;7390472;19;1492;-49
2023/06/06 07:25:40;;;;;;;;;;;;;;;22.61;47.68;101339.59;7389233;19;1899;-51
2023/06/06 07:28:10;;;;;;;;;;;;;;;22.57;48.31;101338.19;7394730;19;1381;-47
2023/06/06 07:30:38;;;;;;;;;;;;;;;22.67;48.14;101332.78;7393493;19;1459;-48
2023/06/06 07:33:06;;;;;;;;;;;;;;;22.49;49.19;101330.00;7393753;19;1418;-48
2023/06/06 07:35:37;;;;;;;;;;;;;;;22.62;48.58;101341.31;7393946;19;1533;-48
2023/06/06 07:38:05;;;;;;;;;;;;;;;22.70;49.15;101345.13;7391021;19;1852;-48
2023/06/06 07:40:34;;;;;;;;;;;;;;;22.68;48.40;101336.31;7392073;19;1835;-49
2023/06/06 07:43:02;;;;;;;;;;;;;;;22.66;47.90;101346.41;7393428;19;1564;-48
2023/06/06 07:45:31;;;;;;;;;;;;;;;22.68;46.35;101336.31;7393345;19;1533;-48
2023/06/06 07:47:59;;;;;;;;;;;;;;;22.63;46.64;101347.56;7393467;19;1692;-48
2023/06/06 07:50:27;;;;;;;;;;;;;;;22.65;48.12;101353.66;7393452;19;1478;-48
2023/06/06 07:52:58;;;;;;;;;;;;;;;22.71;48.26;101354.94;7393884;19;1644;-49
2023/06/06 07:55:28;;;;;;;;;;;;;;;22.61;48.85;101350.41;7391422;19;2345;-49
2023/06/06 07:57:57;;;;;;;;;;;;;;;22.66;48.86;101347.28;7391311;19;1862;-49
2023/06/06 08:00:25;;;;;;;;;;;;;;;22.66;49.46;101335.63;7391497;19;1499;-48
2023/06/06 08:02:53;;;;;;;;;;;;;;;22.57;50.32;101332.81;7391676;19;1445;-47
2023/06/06 08:05:22;;;;;;;;;;;;;;;22.52;50.72;101329.72;7391573;19;1581;-47
2023/06/06 08:07:50;;;;;;;;;;;;;;;22.59;50.47;101336.22;7393241;19;1611;-50
2023/06/06 08:10:21;;;;;;;;;;;;;;;22.50;49.28;101338.91;7390815;19;1554;-48
2023/06/06 08:12:49;;;;;;;;;;;;;;;22.59;49.50;101338.91;7390145;19;1402;-48
2023/06/06 08:15:18;;;;;;;;;;;;;;;22.60;49.73;101339.75;7387865;19;2130;-47
2023/06/06 08:17:47;;;;;;;;;;;;;;;22.57;48.98;101319.34;7390484;19;1845;-45
2023/06/06 08:20:15;;;;;;;;;;;;;;;22.69;49.44;101336.19;7389055;19;1402;-45
2023/06/06 08:22:50;;;;;;;;;;;;;;;22.62;49.45;101322.44;7390330;19;1488;-44
2023/06/06 08:25:21;;;;;;;;;;;;;;;22.63;49.45;101331.38;7387239;19;1475;-45
2023/06/06 08:27:49;;;;;;;;;;;;;;;22.59;49.42;101313.81;7391921;19;1515;-44
2023/06/06 08:30:17;;;;;;;;;;;;;;;22.59;49.63;101325.44;7394434;19;1529;-43
2023/06/06 08:32:45;;;;;;;;;;;;;;;22.51;49.62;101328.00;7394117;19;1941;-44
2023/06/06 08:35:14;;;;;;;;;;;;;;;22.45;48.97;101312.41;7391166;19;1522;-43
2023/06/06 08:37:42;;;;;;;;;;;;;;;22.38;49.27;101316.66;7389923;19;1845;-43
2023/06/06 08:40:11;;;;;;;;;;;;;;;22.45;48.75;101312.41;7391242;19;1616;-43
2023/06/06 08:42:45;;;;;;;;;;;;;;;22.52;48.72;101318.06;7392021;19;1551;-43
2023/06/06 08:45:13;;;;;;;;;;;;;;;22.54;48.64;101311.56;7391514;19;1489;-44
2023/06/06 08:47:43;;;;;;;;;;;;;;;22.60;48.93;101328.97;7392393;19;1434;-43
2023/06/06 08:50:12;;;;;;;;;;;;;;;22.55;49.19;101302.47;7392517;19;1596;-43
2023/06/06 08:52:42;;;;;;;;;;;;;;;22.60;48.78;101329.84;7393640;19;1084;-44
2023/06/06 08:55:11;;;;;;;;;;;;;;;22.40;48.82;101325.47;7392229;19;1508;-44
2023/06/06 08:57:41;;;;;;;;;;;;;;;22.30;49.56;101316.53;7390395;19;1868;-44
2023/06/06 09:00:20;;;;;;;;;;;;;;;22.24;49.72;101299.97;7391693;19;1449;-44
2023/06/06 09:02:53;;;;;;;;;;;;;;;22.22;50.53;101301.94;7389520;19;1519;-44
2023/06/06 09:05:24;;;;;;;;;;;;;;;22.27;48.99;101325.78;7391332;19;1446;-43
2023/06/06 09:07:54;;;;;;;;;;;;;;;22.42;48.57;101310.00;7392318;19;1592;-43
2023/06/06 09:10:22;;;;;;;;;;;;;;;22.53;49.18;101290.97;7391859;19;1719;-44
2023/06/06 09:12:51;;;;;;;;;;;;;;;22.63;48.72;101297.19;7390599;19;1609;-43
2023/06/06 09:15:25;;;;;;;;;;;;;;;22.48;48.97;101300.50;7388724;19;2682;-44
2023/06/06 09:17:55;;;;;;;;;;;;;;;22.61;49.42;101299.19;7390600;19;1849;-44
2023/06/06 09:20:24;;;;;;;;;;;;;;;22.50;49.48;101303.88;7391508;19;1512;-43
2023/06/06 09:22:52;;;;;;;;;;;;;;;22.59;48.87;101303.88;7392002;19;1078;-44
2023/06/06 09:25:21;;;;;;;;;;;;;;;22.51;49.15;101268.72;7388509;19;1587;-46
2023/06/06 09:27:52;;;;;;;;;;;;;;;22.68;49.17;101274.31;7391118;19;1810;-46
2023/06/06 09:30:24;;;;;;;;;;;;;;;22.83;49.54;101272.84;7390713;19;1613;-46
2023/06/06 09:32:58;;;;;;;;;;;;;;;22.55;49.02;101280.06;7391394;19;1604;-46
2023/06/06 09:35:26;;;;;;;;;;;;;;;22.44;49.62;101272.97;7391984;19;1613;-46
2023/06/06 09:37:55;;;;;;;;;;;;;;;22.45;49.75;101296.25;7389243;19;1854;-45
2023/06/06 09:40:24;;;;;;;;;;;;;;;22.37;50.42;101271.88;7391250;19;1737;-45
2023/06/06 09:42:53;;;;;;;;;;;;;;;22.42;50.39;101283.06;7390380;19;1627;-45
2023/06/06 09:45:23;;;;;;;;;;;;;;;22.39;50.61;101269.88;7390999;19;1807;-46
2023/06/06 09:47:52;;;;;;;;;;;;;;;22.50;50.48;101269.72;7390436;19;1398;-46
2023/06/06 09:50:21;;;;;;;;;;;;;;;22.36;50.62;101280.94;7391480;19;1624;-46
2023/06/06 09:52:51;;;;;;;;;;;;;;;22.56;50.55;101266.44;7389875;19;1418;-46
2023/06/06 09:55:20;;;;;;;;;;;;;;;22.46;50.84;101262.91;7388925;19;1586;-45
2023/06/06 09:57:50;;;;;;;;;;;;;;;22.25;50.89;101284.66;7389270;19;1865;-45
2023/06/06 10:00:20;;;;;;;;;;;;;;;22.18;51.14;101273.59;7390587;19;1625;-46
2023/06/06 10:02:51;;;;;;;;;;;;;;;22.25;51.17;101271.19;7390351;19;1553;-45
2023/06/06 10:05:19;;;;;;;;;;;;;;;22.51;50.48;101254.41;7389538;19;1491;-46
2023/06/06 10:07:48;;;;;;;;;;;;;;;22.73;49.53;101258.56;7390587;19;1584;-45
2023/06/06 10:10:17;;;;;;;;;;;;;;;22.46;50.39;101270.97;7390232;19;1704;-45
2023/06/06 10:12:46;;;;;;;;;;;;;;;22.54;50.20;101241.47;7389314;19;1612;-46
2023/06/06 10:15:15;;;;;;;;;;;;;;;22.60;49.81;101245.41;7387293;19;2833;-47
2023/06/06 10:17:44;;;;;;;;;;;;;;;22.59;50.10;101255.34;7388617;19;1881;-46
2023/06/06 10:20:16;;;;;;;;;;;;;;;22.41;50.15;101241.78;7388359;19;1510;-45
2023/06/06 10:22:44;;;;;;;;;;;;;;;22.34;50.10;101247.91;7387052;19;1861;-46
2023/06/06 10:25:14;;;;;;;;;;;;;;;22.38;50.35;101246.63;7385596;19;1374;-46
2023/06/06 10:27:52;;;;;;;;;;;;;;;22.55;50.00;101235.06;7389175;19;1418;-46
2023/06/06 10:30:32;;;;;;;;;;;;;;;22.61;49.56;101226.38;7388928;19;1814;-46
2023/06/06 10:33:04;;;;;;;;;;;;;;;22.49;50.16;101226.75;7389639;19;1616;-46
2023/06/06 10:35:36;;;;;;;;;;;;;;;22.53;49.78;101218.19;7390424;19;1017;-46
2023/06/06 10:38:06;;;;;;;;;;;;;;;22.49;50.40;101227.59;7388316;19;1865;-46
2023/06/06 10:40:44;;;;;;;;;;;;;;;22.45;49.98;101236.97;7388993;19;1824;-46
2023/06/06 10:43:15;;;;;;;;;;;;;;;22.53;50.22;101212.81;7389012;19;1536;-46
2023/06/06 10:45:43;;;;;;;;;;;;;;;22.50;49.84;101212.25;7389363;19;1744;-46
2023/06/06 10:48:13;;;;;;;;;;;;;;;22.56;49.39;101209.84;7389299;19;1748;-46
2023/06/06 10:50:56;;;;;;;;;;;;;;;22.49;49.59;101215.97;7395338;19;1584;-45
2023/06/06 10:53:25;;;;;;;;;;;;;;;22.47;50.03;101208.00;7397075;19;1632;-46
2023/06/06 10:55:53;;;;;;;;;;;;;;;22.45;50.53;101215.41;7395477;19;1521;-46
2023/06/06 10:58:24;;;;;;;;;;;;;;;22.48;49.97;101204.31;7395212;19;1864;-46
2023/06/06 11:00:58;;;;;;;;;;;;;;;22.40;50.03;101213.16;7396673;19;1640;-46
2023/06/06 11:03:35;;;;;;;;;;;;;;;22.35;50.18;101199.25;7396271;19;1821;-46
2023/06/06 11:06:11;;;;;;;;;;;;;;;22.41;50.43;101214.00;7395057;19;1530;-46
2023/06/06 11:08:40;;;;;;;;;;;;;;;22.34;50.06;101211.06;7396260;19;1811;-46
2023/06/06 11:11:21;;;;;;;;;;;;;;;22.35;50.76;101206.50;7397035;19;1551;-46
2023/06/06 11:13:57;;;;;;;;;;;;;;;22.44;50.38;101205.59;7396215;19;2342;-45
2023/06/06 11:16:40;;;;;;;;;;;;;;;22.47;50.15;101194.53;7401044;19;1751;-46
2023/06/06 11:19:11;;;;;;;;;;;;;;;22.40;50.28;101204.19;7397105;19;1871;-46
2023/06/06 11:21:42;;;;;;;;;;;;;;;22.34;50.64;101215.56;7402675;19;1794;-45
2023/06/06 11:24:12;;;;;;;;;;;;;;;22.37;50.42;101201.81;7400631;19;1482;-46
2023/06/06 11:26:40;;;;;;;;;;;;;;;22.38;50.50;101215.16;7401125;19;1380;-46
2023/06/06 11:29:10;;;;;;;;;;;;;;;22.41;50.06;101195.97;7402053;19;1730;-46
2023/06/06 11:31:39;;;;;;;;;;;;;;;22.37;50.10;101196.44;7403641;19;1022;-46
2023/06/06 11:34:08;;;;;;;;;;;;;;;22.33;50.55;101189.63;7399728;19;1572;-46
2023/06/06 11:36:37;;;;;;;;;;;;;;;22.35;50.75;101182.25;7398258;19;963;-45
2023/06/06 11:39:10;;;;;;;;;;;;;;;22.44;49.81;101184.03;7400387;19;1854;-45
2023/06/06 11:41:42;;;;;;;;;;;;;;;22.21;50.30;101187.09;7401133;19;1944;-46
2023/06/06 11:44:10;;;;;;;;;;;;;;;22.34;49.62;101176.03;7400943;19;1837;-45
2023/06/06 11:46:48;;;;;;;;;;;;;;;22.26;49.69;101177.75;7400824;19;1801;-46
2023/06/06 11:49:17;;;;;;;;;;;;;;;22.24;49.82;101178.75;7401201;19;1395;-46
2023/06/06 11:51:45;;;;;;;;;;;;;;;22.35;49.82;101171.47;7400734;19;1458;-45
2023/06/06 11:54:18;;;;;;;;;;;;;;;22.29;50.13;101178.31;7400273;19;1213;-46
2023/06/06 11:56:46;;;;;;;;;;;;;;;22.20;50.38;101171.94;7399688;19;1706;-46
2023/06/06 11:59:14;;;;;;;;;;;;;;;22.32;49.92;101164.53;7397411;19;1864;-46
2023/06/06 12:01:50;;;;;;;;;;;;;;;22.26;49.97;101161.56;7402421;19;1121;-46
2023/06/06 12:04:20;;;;;;;;;;;;;;;22.32;49.64;101163.69;7401192;19;1838;-45
2023/06/06 12:06:48;;;;;;;;;;;;;;;22.36;49.14;101168.66;7400907;19;1894;-45
2023/06/06 12:09:20;;;;;;;;;;;;;;;22.32;49.75;101160.97;7400110;19;1924;-46
2023/06/06 12:11:51;;;;;;;;;;;;;;;22.27;49.10;101147.13;7400452;19;1396;-46
2023/06/06 12:14:20;;;;;;;;;;;;;;;22.30;50.06;101165.66;7400842;19;1835;-46
2023/06/06 12:16:48;;;;;;;;;;;;;;;22.37;49.28;101150.63;7399479;19;1668;-46
2023/06/06 12:19:17;;;;;;;;;;;;;;;22.30;50.10;101154.91;7397927;19;1848;-46
2023/06/06 12:21:44;;;;;;;;;;;;;;;;;;7399332;19;1392;-46
2023/06/06 12:24:25;;;;;;;;;;;;;;;22.28;48.89;101143.41;7397334;19;2024;-46
2023/06/06 12:26:56;;;;;;;;;;;;;;;22.08;52.83;101148.84;7399819;19;995;-45
2023/06/06 12:29:26;;;;;;;;;;;;;;;22.09;52.16;101139.78;7399733;19;1853;-46
2023/06/06 12:32:15;;;;;;;;;;;;;;;22.17;52.53;101125.56;7400022;19;1783;-46
2023/06/06 12:34:48;;;;;;;;;;;;;;;22.12;52.28;101136.78;7395737;19;1867;-46
2023/06/06 12:37:16;;;;;;;;;;;;;;;22.03;51.37;101129.59;7399510;19;1805;-46
2023/06/06 12:39:47;;;;;;;;;;;;;;;21.95;52.97;101126.78;7398334;19;1842;-47
2023/06/06 12:42:17;;;;;;;;;;;;;;;21.90;51.66;101112.91;7401011;19;945;-45
2023/06/06 12:44:45;;;;;;;;;;;;;;;22.11;52.14;101128.88;7400975;19;1842;-47
2023/06/06 12:47:14;;;;;;;;;;;;;;;22.19;51.55;101123.59;7400167;19;1518;-45
2023/06/06 12:49:42;;;;;;;;;;;;;;;22.27;51.27;101104.03;7399319;19;1601;-46
2023/06/06 12:52:11;;;;;;;;;;;;;;;22.19;51.57;101097.47;7399366;19;1839;-46
2023/06/06 12:54:42;;;;;;;;;;;;;;;22.19;51.54;101118.19;7400192;19;1727;-45
2023/06/06 12:57:15;;;;;;;;;;;;;;;22.21;51.66;101100.88;7400215;19;1023;-46
2023/06/06 12:59:44;;;;;;;;;;;;;;;22.49;51.11;101100.91;7398608;19;1845;-46
2023/06/06 13:02:13;;;;;;;;;;;;;;;22.33;51.09;101106.13;7400137;19;1952;-46